• Join FlightAware (Why Join?)
  • Login
  • US Flag 
01:51PM EDT


 

Airport Tracker/Info


-or-


 

Live Flight TrackerFlight Track Log ✈ SWA1170 ✈ 03-Feb-2014 ✈ KMDW - KFLL

Flight Track Log - Related Links

Times and Time Zones

All times are in EST time to prevent confusion due to time zone crossing. See the SWA1170 flight status page for this flight to view local times or setup timezone preferences in your user account.

Time Position Orientation Groundspeed Altitude Reporting Facility
EST Latitude Longitude Course Direction KTS MPH feet Rate Location/Type
07:14PM 41.7375 -87.7800 176° South 197 227 41,000  Level Chicago Center
07:15PM 41.6758 -87.7589 166° South 229 264 41,000 -14,880 Level Chicago Center
07:16PM 41.6036 -87.7314 164° South 260 299 10,300 -13,080 Descending Chicago Center
07:17PM 41.5311 -87.6861 155° Southeast 295 339 14,300 3,180 Climbing Chicago Center
07:18PM 41.4406 -87.6708 173° South 319 367 16,900 2,700 Climbing Chicago Center
07:19PM 41.3431 -87.6508 171° South 345 397 19,900 3,060 Climbing Chicago Center
07:20PM 40.9851 -87.6918 176° South  Level FlightAware Approximate
07:20PM 41.2178 -87.6269 172° South 376 433 23,200  Level Chicago Center
07:21PM 41.1053 -87.6056 172° South 396 456 25,700 2,580 Climbing Chicago Center
07:22PM 40.9906 -87.5831 172° South 410 472 28,600 2,280 Climbing Chicago Center
07:24PM 40.8747 -87.5625 172° South 415 478 30,500 1,740 Climbing Chicago Center
07:25PM 40.7556 -87.5406 172° South 429 494 32,300 2,100 Climbing Chicago Center
07:26PM 40.6347 -87.4972 165° South 441 507 34,900 2,040 Climbing Chicago Center
07:27PM 40.5183 -87.4450 161° South 445 512 36,600 1,380 Climbing Chicago Center
07:28PM 40.4025 -87.3942 162° South 442 509 37,800 1,260 Climbing Chicago Center
07:29PM 40.2617 -87.3308 161° South 447 514 39,300 1,260 Climbing Chicago Center
07:30PM 40.1469 -87.2811 162° South 443 510 40,500 780 Climbing Chicago Center
07:31PM 40.0319 -87.2300 161° South 439 505 41,000 180 Climbing Chicago Center
07:32PM 39.9136 -87.1783 161° South 446 513 41,000  Level Indianapolis Center
07:33PM 39.7736 -87.1161 161° South 447 514 41,000  Level Indianapolis Center
07:34PM 39.6575 -87.0658 162° South 444 511 41,000  Level Indianapolis Center
07:35PM 39.5425 -87.0161 162° South 442 509 41,000  Level Indianapolis Center
07:36PM 39.4272 -86.9656 161° South 441 507 41,000  Level Indianapolis Center
07:37PM 39.3136 -86.9161 161° South 438 504 41,000  Level Indianapolis Center
07:38PM 39.1983 -86.8667 162° South 438 504 41,000  Level Indianapolis Center
07:39PM 39.0833 -86.7975 155° Southeast 444 511 41,000  Level Indianapolis Center
07:40PM 38.9489 -86.7053 152° Southeast 452 520 41,000  Level Indianapolis Center
07:41PM 38.8372 -86.6294 152° Southeast 450 518 41,000  Level Indianapolis Center
07:42PM 38.7261 -86.5542 152° Southeast 448 516 41,000  Level Indianapolis Center
07:43PM 38.6142 -86.4800 153° Southeast 446 513 41,000  Level Indianapolis Center
07:44PM 38.5042 -86.4064 152° Southeast 444 511 41,000  Level Indianapolis Center
07:45PM 38.3919 -86.3311 152° Southeast 448 516 41,000  Level Indianapolis Center
07:46PM 38.2819 -86.2589 153° Southeast 443 510 41,000  Level Indianapolis Center
07:47PM 38.1703 -86.1842 152° Southeast 447 514 41,000  Level Indianapolis Center
07:48PM 38.0597 -86.1111 153° Southeast 445 512 41,000  Level Indianapolis Center
07:49PM 37.9458 -86.0381 153° Southeast 451 519 41,000  Level Indianapolis Center
07:50PM 37.8331 -85.9639 153° Southeast 453 521 41,000  Level Indianapolis Center
07:51PM 37.7203 -85.8906 153° Southeast 455 524 41,000  Level Indianapolis Center
07:52PM 37.6058 -85.8169 153° Southeast 456 525 41,000  Level Indianapolis Center
07:53PM 37.4906 -85.7442 153° Southeast 459 528 41,000  Level Indianapolis Center
07:54PM 37.3775 -85.6689 152° Southeast 459 528 41,000  Level Indianapolis Center
07:55PM 37.2431 -85.5828 153° Southeast 455 524 41,000  Level Indianapolis Center
07:56PM 37.1275 -85.5086 153° Southeast 460 529 41,000  Level Indianapolis Center
07:57PM 37.0275 -85.4444 153° Southeast 452 520 41,000  Level Indianapolis Center
07:58PM 36.9131 -85.3708 153° Southeast 459 528 41,000  Level Indianapolis Center
07:59PM 36.7753 -85.2853 154° Southeast 459 528 41,000  Level Indianapolis Center
08:01PM 36.6583 -85.2511 167° South 433 498 41,000  Level Indianapolis Center
08:02PM 36.5400 -85.2189 168° South 433 498 41,000  Level Indianapolis Center
08:03PM 36.4217 -85.1853 167° South 435 501 41,000  Level Indianapolis Center
08:04PM 36.3022 -85.1531 168° South 440 506 41,000  Level Indianapolis Center
08:05PM 36.1831 -85.1194 167° South 438 504 41,000  Level Indianapolis Center
08:06PM 36.0628 -85.0861 167° South 443 510 41,000  Level Indianapolis Center
08:07PM 35.9400 -85.0525 168° South 441 507 41,000  Level Indianapolis Center
08:08PM 35.8189 -85.0169 167° South 442 509 41,000  Level Indianapolis Center
08:09PM 35.6856 -84.9844 169° South 444 511 41,000  Level Indianapolis Center
08:10PM 35.5683 -84.9508 167° South 438 504 41,000  Level Indianapolis Center
08:11PM 35.4064 -84.9103 168° South 437 503 41,000  Level Atlanta Center
08:12PM 35.2878 -84.8783 168° South 432 497 41,000  Level Atlanta Center
08:13PM 35.1711 -84.8467 167° South 432 497 41,000  Level Atlanta Center
08:14PM 35.0544 -84.8128 167° South 432 497 41,000  Level Atlanta Center
08:15PM 34.9400 -84.7836 168° South 432 497 41,000 -120 Level Atlanta Center
08:16PM 34.8231 -84.7522 168° South 432 497 40,800 -600 Descending Atlanta Center
08:17PM 34.7044 -84.7208 168° South 432 497 39,800 -900 Descending Atlanta Center
08:18PM 34.6003 -84.6925 167° South 432 497 39,000 -420 Descending Atlanta Center
08:19PM 34.4836 -84.6611 167° South 432 497 39,000  Level Atlanta Center
08:20PM 34.3667 -84.6303 168° South 432 497 39,000  Level Atlanta Center
08:21PM 34.2500 -84.6017 169° South 432 497 39,000  Level Atlanta Center
08:22PM 34.1311 -84.5708 168° South 432 497 39,000  Level Atlanta Center
08:23PM 34.0125 -84.5400 168° South 432 497 39,000  Level Atlanta Center
08:24PM 33.8936 -84.5067 167° South 432 497 39,000  Level Atlanta Center
08:25PM 33.7642 -84.4711 167° South 438 504 39,000  Level Atlanta Center
08:26PM 33.6433 -84.4406 168° South 438 504 39,000  Level Atlanta Center
08:27PM 33.5369 -84.4003 162° South 443 510 39,000  Level Atlanta Center
08:28PM 33.4222 -84.3525 161° South 443 510 39,000  Level Atlanta Center
08:29PM 33.3075 -84.3072 162° South 443 510 39,000  Level Atlanta Center
08:30PM 33.1908 -84.2597 161° South 438 504 39,000  Level Atlanta Center
08:31PM 33.0636 -84.2075 161° South 443 510 39,000  Level Atlanta Center
08:32PM 32.9550 -84.1553 158° South 431 496 39,000  Level Atlanta Center
08:33PM 32.8403 -84.1081 161° South 431 496 39,000  Level Atlanta Center
08:34PM 32.7214 -84.0636 163° South 431 496 39,000  Level Atlanta Center
08:35PM 32.6067 -84.0142 160° South 436 502 39,000  Level Atlanta Center
08:36PM 32.4917 -83.9650 160° South 441 507 39,000  Level Atlanta Center
08:37PM 32.3747 -83.9208 162° South 441 507 39,000  Level Atlanta Center
08:39PM 32.1922 -83.8428 160° South 443 510 39,000  Level Jacksonville Center
08:40PM 32.0778 -83.7947 160° South 443 510 39,000  Level Jacksonville Center
08:41PM 31.9611 -83.7497 162° South 443 510 39,000  Level Jacksonville Center
08:42PM 31.8319 -83.6922 159° South 443 510 39,000  Level Jacksonville Center
08:43PM 31.7153 -83.6497 163° South 445 512 39,000  Level Jacksonville Center
08:44PM 31.5925 -83.6000 161° South 449 517 39,000  Level Jacksonville Center
08:45PM 31.4736 -83.5550 162° South 455 524 39,000  Level Jacksonville Center
08:46PM 31.3592 -83.5106 162° South 449 517 39,000  Level Jacksonville Center
08:47PM 31.2467 -83.4636 160° South 439 505 39,000  Level Jacksonville Center
08:48PM 31.1319 -83.4192 162° South 439 505 39,000  Level Jacksonville Center
08:49PM 31.0172 -83.3750 162° South 444 511 39,000  Level Jacksonville Center
08:50PM 30.9025 -83.3283 161° South 444 511 39,000 -60 Level Jacksonville Center
08:51PM 30.7919 -83.2844 161° South 438 504 38,900  Descending Jacksonville Center
08:52PM 30.6817 -83.2283 156° South 433 498 39,000  Climbing Jacksonville Center
08:53PM 30.5647 -83.1725 158° South 433 498 39,000 -60 Level Jacksonville Center
08:54PM 30.4500 -83.1142 156° South 438 504 38,900  Descending Jacksonville Center
08:55PM 30.3375 -83.0564 156° South 443 510 39,000  Climbing Jacksonville Center
08:56PM 30.2225 -83.0008 157° South 443 510 39,000 -60 Level Jacksonville Center
08:57PM 30.1119 -82.9431 156° South 443 510 38,900 -60 Descending Jacksonville Center
08:58PM 30.0033 -82.8925 158° South 448 516 38,900  Level Jacksonville Center
08:59PM 29.8928 -82.8375 157° South 448 516 39,000  Climbing Jacksonville Center
09:00PM 29.7781 -82.7800 156° South 448 516 38,900 -60 Descending Jacksonville Center
09:01PM 29.6525 -82.7228 158° South 453 521 38,900  Level Jacksonville Center
09:02PM 29.5356 -82.6633 156° South 453 521 39,000  Climbing Jacksonville Center
09:03PM 29.4353 -82.6111 156° South 453 521 39,000  Level Jacksonville Center
09:04PM 29.3203 -82.5544 157° South 453 521 39,000  Level Jacksonville Center
09:05PM 29.2075 -82.5000 157° South 453 521 39,000  Level Jacksonville Center
09:06PM 29.0903 -82.4506 160° South 453 521 39,000  Level Jacksonville Center
09:07PM 28.9736 -82.4511 180° South 433 498 39,000  Level Jacksonville Center
09:08PM 28.8567 -82.4611 184° South 424 488 39,000 -60 Level Jacksonville Center
09:09PM 28.7397 -82.4686 183° South 424 488 38,900  Descending Jacksonville Center
09:10PM 28.6250 -82.4764 183° South 424 488 39,000  Climbing Jacksonville Center
09:11PM 28.5083 -82.4817 182° South 424 488 38,900 -60 Descending Jacksonville Center
09:12PM 28.3892 -82.4867 182° South 424 488 38,900  Level Jacksonville Center
09:13PM 28.2725 -82.4942 183° South 424 488 39,000  Climbing Jacksonville Center
09:15PM 28.0225 -82.5081 183° South 425 489 39,000 -60 Level Miami Center
09:16PM 27.8961 -82.4922 174° South 425 489 38,900 -540 Descending Miami Center
09:17PM 27.7831 -82.4492 161° South 431 496 38,000 -960 Descending Miami Center
09:18PM 27.6636 -82.4058 162° South 436 502 37,000 -1,020 Descending Miami Center
09:19PM 27.5319 -82.3572 162° South 453 521 36,000 -960 Descending Miami Center
09:20PM 27.4106 -82.3142 163° South 453 521 35,100 -960 Descending Miami Center
09:21PM 27.3036 -82.2717 161° South 453 521 34,100 -960 Descending Miami Center
09:22PM 27.1883 -82.2242 160° South 453 521 33,200 -1,020 Descending Miami Center
09:23PM 27.0858 -82.1194 138° Southeast 447 514 32,100 -1,080 Descending Miami Center
09:24PM 26.9956 -82.0172 135° Southeast 452 520 31,100 -1,020 Descending Miami Center
09:25PM 26.9117 -81.9136 132° Southeast 452 520 30,100 -1,140 Descending Miami Center
09:26PM 26.8253 -81.8144 134° Southeast 446 513 28,900 -1,800 Descending Miami Center
09:27PM 26.7469 -81.7206 133° Southeast 434 499 26,600 -2,280 Descending Miami Center
09:28PM 26.6686 -81.6267 133° Southeast 416 479 24,400 -2,160 Descending Miami Center
09:29PM 26.5922 -81.5375 134° Southeast 403 464 22,300 -2,100 Descending Miami Center
09:30PM 26.5258 -81.4606 134° Southeast 388 447 20,300 -2,100 Descending Miami Center
09:31PM 26.4514 -81.3694 132° Southeast 374 430 18,100 -2,100 Descending Miami Center
09:32PM 26.3828 -81.2906 134° Southeast 356 410 16,100 -2,100 Descending Miami Center
09:33PM 26.3183 -81.2139 133° Southeast 351 404 14,000 -2,040 Descending Miami Center
09:33PM 26.2717 -81.1683 139° Southeast 336 387 12,800 -2,100 Descending Miami Center
09:34PM 26.2536 -81.1422 128° Southeast 341 392 11,900 -2,040 Descending Miami Center
09:35PM 26.1928 -81.0797 137° Southeast 320 368 10,300 -1,800 Descending Miami Center
09:35PM 26.1908 -81.0703 103° East 328 377 10,100 -900 Descending Miami Center
09:36PM 26.1511 -81.0042 124° Southeast 286 329 9,400 -900 Descending Miami Center
09:36PM 26.1536 -80.9928 76° East 303 349 9,200 -1,680 Descending Miami Center
09:37PM 26.1369 -80.9136 103° East 289 333 7,700 -1,740 Descending Miami Center
09:37PM 26.1392 -80.9042 75° East 282 325 7,500 -1,500 Descending Miami Center
09:38PM 26.1225 -80.8275 104° East 283 326 6,200 -1,500 Descending Miami Center
09:38PM 26.1250 -80.8183 73° East 282 325 6,000 -120 Descending Miami Center
09:39PM 26.1103 -80.7414 102° East 275 316 6,100  Climbing Miami Center
09:39PM 26.1144 -80.7439 332° Northwest 282 325 6,000 -420 Descending Miami Center
09:40PM 26.0997 -80.6625 101° East 277 319 5,700 -540 Descending Miami Center
09:41PM 26.0833 -80.5764 102° East 252 290 5,000 -720 Descending Miami Center
09:41PM 26.0872 -80.5786 333° Northwest 277 319 5,000 -240 Level Miami Center
09:42PM 26.0767 -80.5044 99° East 222 255 4,800 -120 Descending Miami Center
09:42PM 26.0808 -80.5092 314° West 253 291 4,900 -720 Climbing Miami Center
09:43PM 26.0783 -80.4419 92° East 230 265 4,100 -780 Descending Miami Center
09:44PM 26.0758 -80.3703 92° East 211 243 3,400 -840 Descending Miami Center
09:45PM 26.0750 -80.3125 91° East 187 215 2,500 -900 Descending Miami Center
09:46PM 26.0742 -80.2661 91° East 151 174 1,700 -780 Descending Miami Center
09:47PM 26.0750 -80.2244 89° East 120 138 1,000 -660 Descending Miami Center
09:48PM 26.0739 -80.1853 92° East 134 154 400 -660 Descending Miami Center
09:50PM 26.0667 -80.1500 180° South  Level FlightAware Approximate